Laredo International, TX

9:55 PM CST en Marzo 05, 2015 (GMT -0600)
Cotulla-La Salle County | Change Station
CLOSE
Current Station
Aeropuerto
Location: Cotulla,
Altura: 476 ft
Estaciones meteorológicas cercanas

Alt 476 ft 28.46 °N, 99.22 °W | Updated 1 hour ago

Parcialmente nublado
Parcialmente nublado
44 ° F
Sensación térmica 40 ° F
N
7
Viento Variable Viento desde NNE

Hoy
Alta -- | Baja -- ° F
--% Posibilidad de precipitaciones
Ayer
Alta -- | Baja -- ° F
Precip. -- pul
6:58 AM 6:40 PM
Luna llena, 100% visible
Presión 30.56 pul
Visibilidad 10.0 Millas
Nubes Despejado
Vientos helados 40 ° F
Punto de rocío 26 ° F
Humedad 49%
Precipitaciones 0.04 pul
Espesor de la nieve No disponible.
UV 0 de una escala de 12
Polen 2.10 de una escala de 12
Calidad del aire No disponible.
Flu Activity No disponible.
METAR KCOT 060253Z AUTO 02006KT 10SM CLR 07/M03 A3055 RMK AO2 SLP346 T00671033 51017

More Conditions Fewer Conditions

Presión 30.56 pul
Visibilidad 10.0 Millas
Nubes Despejado
Vientos helados 40 ° F
Punto de rocío 26 ° F
Humedad 49%
Precipitaciones 0.04 pul
Espesor de la nieve No disponible.
UV 0 de una escala de 12
Polen 2.10 de una escala de 12
Calidad del aire No disponible.
Flu Activity No disponible.
METAR KCOT 060253Z AUTO 02006KT 10SM CLR 07/M03 A3055 RMK AO2 SLP346 T00671033 51017

More Conditions Fewer Conditions

10-Day Weather Forecast

Almanac

Astronomía

Mar. 05, 2015 Salida Puesta
Hora real
Crepúsculo civil
Crepúsculo náutico
Crepúsculo astronómico
Luna
Horas de luz
Horas de luz
Tomorrow will be .
, % of the Moon is Illuminated

Extremos de hoy

Máximos del estado Bajos del estado

Community

WunderPhotos

Upload Photos

1,803,171 ¡fotos cargadas!

WunderBlogs® & News

Nearby

Calidad del aire

  Calidad del aire Índice AQ Contaminante
Not available.

Grosos de nieve

Estación Profundido Altura

Actividad de terremotos

Ciudad Distance Mag. Tiempo y dato
Magnitud mínima muestra es 2,5.

Temperaturas de aguas costeras

Lugar Temperatura

Estaciones meteorológicas cercanas